createdAt,value
2018-12-24T00:02:01.551Z,29.86
2018-12-24T00:07:56.523Z,27.62
2018-12-24T00:13:51.517Z,29.72
2018-12-24T00:19:46.528Z,24.27
2018-12-24T00:25:41.515Z,23.57
2018-12-24T00:31:36.551Z,22.35
2018-12-24T00:37:31.553Z,25.1
2018-12-24T00:43:26.577Z,28.68
2018-12-24T00:49:21.540Z,23.27
2018-12-24T00:55:16.535Z,24.63
2018-12-24T01:01:11.515Z,26.69
2018-12-24T01:07:06.543Z,19.8
2018-12-24T01:13:01.564Z,22.35
2018-12-24T01:18:56.586Z,16.76
2018-12-24T01:24:51.560Z,21.42
2018-12-24T01:30:46.568Z,21.81
2018-12-24T01:36:41.547Z,23.68
2018-12-24T01:42:36.571Z,26.17
2018-12-24T01:48:31.559Z,21.21
2018-12-24T01:54:26.570Z,19.07
2018-12-24T02:00:21.560Z,22.97
2018-12-24T02:06:16.589Z,23.57
2018-12-24T02:12:11.583Z,21.67
2018-12-24T02:18:06.568Z,21.23
2018-12-24T02:24:01.576Z,30.3
2018-12-24T02:29:56.612Z,19.96
2018-12-24T02:35:51.604Z,24.02
2018-12-24T02:41:46.623Z,19.71
2018-12-24T02:47:41.605Z,20.9
2018-12-24T02:53:36.610Z,18.52
2018-12-24T02:59:31.613Z,22.01
2018-12-24T03:05:26.623Z,23.36
2018-12-24T03:11:21.625Z,19.57
2018-12-24T03:17:16.622Z,16.92
2018-12-24T03:23:11.603Z,15.45
2018-12-24T03:29:06.645Z,17.08
2018-12-24T03:35:01.684Z,20.03
2018-12-24T03:40:56.619Z,18.69
2018-12-24T03:46:51.679Z,28.18
2018-12-24T03:52:46.630Z,15.26
2018-12-24T03:58:41.659Z,18.91
2018-12-24T04:04:36.640Z,18.9
2018-12-24T04:10:31.674Z,17.3
2018-12-24T04:16:26.656Z,20.3
2018-12-24T04:22:21.694Z,21.19
2018-12-24T04:28:16.681Z,12.3
2018-12-24T04:34:11.674Z,12.98
2018-12-24T04:40:06.706Z,19.51
2018-12-24T04:46:01.673Z,13.05
2018-12-24T04:51:56.671Z,15.53
2018-12-24T04:57:51.685Z,17.26
2018-12-24T05:03:46.677Z,16.73
2018-12-24T05:09:41.689Z,17.52
2018-12-24T05:15:36.720Z,14.13
2018-12-24T05:21:31.681Z,15.4
2018-12-24T05:27:26.724Z,14.79
2018-12-24T05:33:21.705Z,16.19
2018-12-24T05:39:16.695Z,15.14
2018-12-24T05:45:11.695Z,18.23
2018-12-24T05:51:06.722Z,14.58
2018-12-24T05:57:01.713Z,13.69
2018-12-24T06:02:56.728Z,12.84
2018-12-24T06:08:51.750Z,12.3
2018-12-24T06:14:46.759Z,13.33
2018-12-24T06:20:41.712Z,10.74
2018-12-24T06:26:36.753Z,14.43
2018-12-24T06:32:31.721Z,13.59
2018-12-24T06:38:26.782Z,14.69
2018-12-24T06:44:21.776Z,15.37
2018-12-24T06:50:16.785Z,19.11
2018-12-24T06:56:11.741Z,14.15
2018-12-24T07:02:06.762Z,11.96
2018-12-24T07:08:01.778Z,13.22
2018-12-24T07:13:56.769Z,15.56
2018-12-24T07:19:51.796Z,18.35
2018-12-24T07:25:46.768Z,15.84
2018-12-24T07:31:41.814Z,15.77
2018-12-24T07:37:36.802Z,21.24
2018-12-24T07:43:31.812Z,19.28
2018-12-24T07:49:26.814Z,19.5
2018-12-24T07:55:21.814Z,22.06
2018-12-24T08:01:16.865Z,17.42
2018-12-24T08:07:11.808Z,18.91
2018-12-24T08:13:06.785Z,19.77
2018-12-24T08:19:01.802Z,20.99
2018-12-24T08:24:56.817Z,16.95
2018-12-24T08:30:51.791Z,25.72
2018-12-24T08:36:46.867Z,20.77
2018-12-24T08:42:41.928Z,23.21
2018-12-24T08:48:36.819Z,22.84
2018-12-24T08:54:31.869Z,17.78
2018-12-24T09:00:26.893Z,14.16
2018-12-24T09:06:21.827Z,14.98
2018-12-24T09:12:16.852Z,16.3
2018-12-24T09:18:11.819Z,14.28
2018-12-24T09:24:06.853Z,15.8
2018-12-24T09:30:01.826Z,12.99
2018-12-24T09:35:56.861Z,15.27
2018-12-24T09:41:51.840Z,17.05
2018-12-24T09:47:46.854Z,17.13
2018-12-24T09:53:41.857Z,16.53
2018-12-24T09:59:36.853Z,18.16
2018-12-24T10:05:31.880Z,18.95
2018-12-24T10:11:26.885Z,17.05
2018-12-24T10:17:21.981Z,18.17
2018-12-24T10:23:16.875Z,13.73
2018-12-24T10:29:11.867Z,16.28
2018-12-24T10:35:06.900Z,15.83
2018-12-24T10:41:01.905Z,14.35
2018-12-24T10:46:58.449Z,19.73
2018-12-24T10:52:51.908Z,14.85
2018-12-24T10:58:46.885Z,11.46
2018-12-24T11:04:41.878Z,14.63
2018-12-24T11:10:36.896Z,18.36
2018-12-24T11:16:31.906Z,16.34
2018-12-24T11:22:26.902Z,16.71
2018-12-24T11:28:21.935Z,12.11
2018-12-24T11:34:16.948Z,13.22
2018-12-24T11:40:11.970Z,13.42
2018-12-24T11:46:06.953Z,17.17
2018-12-24T11:52:01.932Z,16.82
2018-12-24T11:57:56.929Z,16.11
2018-12-24T12:03:51.962Z,14.66
2018-12-24T12:09:46.961Z,13.79
2018-12-24T12:15:42.635Z,13.65
2018-12-24T12:21:36.948Z,12.11
2018-12-24T12:27:31.946Z,14.29
2018-12-24T12:33:26.993Z,16.56
2018-12-24T12:39:21.954Z,15.51
2018-12-24T12:45:16.965Z,19.84
2018-12-24T12:51:11.947Z,22.65
2018-12-24T12:57:06.969Z,24.97
2018-12-24T13:03:01.988Z,36.93
2018-12-24T13:08:57.014Z,25.79
2018-12-24T13:14:51.978Z,22.6
2018-12-24T13:20:47.002Z,17.38
2018-12-24T13:26:41.985Z,18.83
2018-12-24T13:32:37.001Z,18.6
2018-12-24T13:38:32.046Z,18.74
2018-12-24T13:44:26.996Z,22.07
2018-12-24T13:50:21.989Z,19.33
2018-12-24T13:56:17.030Z,19.86
2018-12-24T14:02:12.019Z,16.87
2018-12-24T14:08:07.071Z,13.9
2018-12-24T14:14:02.021Z,14.03
2018-12-24T14:19:57.022Z,16.02
2018-12-24T14:25:52.029Z,19.61
2018-12-24T14:31:47.025Z,17.28
2018-12-24T14:37:42.026Z,27.85
2018-12-24T14:43:37.018Z,19.52
2018-12-24T14:49:32.073Z,20.79
2018-12-24T14:55:27.033Z,15.02
2018-12-24T15:01:22.042Z,19.08
2018-12-24T15:07:17.120Z,22.52
2018-12-24T15:13:12.051Z,25.4
2018-12-24T15:19:07.075Z,25.4
2018-12-24T15:25:02.068Z,29.76
2018-12-24T15:30:57.052Z,21.56
2018-12-24T15:36:52.043Z,21.93
2018-12-24T15:42:47.060Z,17.27
2018-12-24T15:48:42.062Z,25.43
2018-12-24T15:54:37.093Z,23.06
2018-12-24T16:00:32.066Z,26.74
2018-12-24T16:06:27.090Z,29.68
2018-12-24T16:12:22.075Z,24.46
2018-12-24T16:18:17.076Z,23.55
2018-12-24T16:24:12.091Z,36.91
2018-12-24T16:30:07.086Z,17.68
2018-12-24T16:36:02.143Z,17.71
2018-12-24T16:41:57.111Z,26.6
2018-12-24T16:47:52.117Z,16.49
2018-12-24T16:53:47.102Z,15.62
2018-12-24T16:59:42.153Z,8.77
2018-12-24T17:05:37.121Z,11.83
2018-12-24T17:11:32.108Z,11.79
2018-12-24T17:17:27.132Z,17.02
2018-12-24T17:23:22.128Z,19.07
2018-12-24T17:29:17.123Z,16.25
2018-12-24T17:35:12.272Z,16.95
2018-12-24T17:41:07.162Z,18.69
2018-12-24T17:47:02.167Z,30.72
2018-12-24T17:52:57.127Z,19.9
2018-12-24T17:58:52.150Z,23.43
2018-12-24T18:04:47.159Z,33.93
2018-12-24T18:10:42.170Z,47.84
2018-12-24T18:16:37.230Z,36.29
2018-12-24T18:22:32.167Z,57.83
2018-12-24T18:28:27.166Z,41.52
2018-12-24T18:34:22.178Z,42.84
2018-12-24T18:40:17.184Z,28.77
2018-12-24T18:46:12.187Z,45.6
2018-12-24T18:52:07.168Z,28.42
2018-12-24T18:58:02.176Z,49.21
2018-12-24T19:03:57.185Z,74.73
2018-12-24T19:09:52.211Z,68.93
2018-12-24T19:15:47.184Z,63.84
2018-12-24T19:21:43.985Z,67.62
2018-12-24T19:27:37.185Z,107.32
2018-12-24T19:33:32.206Z,31.7
2018-12-24T19:39:27.204Z,24.27
2018-12-24T19:45:22.222Z,19.86
2018-12-24T19:51:17.225Z,25.88
2018-12-24T19:57:12.225Z,27.49
2018-12-24T20:03:07.238Z,19.71
2018-12-24T20:09:02.219Z,14.81
2018-12-24T20:14:57.244Z,9.12
2018-12-24T20:20:52.277Z,6.88
2018-12-24T20:26:47.244Z,9.6
2018-12-24T20:32:42.250Z,9.77
2018-12-24T20:38:37.445Z,7.94
2018-12-24T20:44:32.278Z,7.77
2018-12-24T20:50:27.241Z,8.24
2018-12-24T20:56:22.232Z,4.34
2018-12-24T21:02:17.294Z,4.25
2018-12-24T21:08:12.260Z,6.52
2018-12-24T21:14:07.275Z,5.49
2018-12-24T21:20:02.266Z,3.89
2018-12-24T21:25:57.264Z,5.28
2018-12-24T21:31:52.350Z,2.73
2018-12-24T21:37:47.318Z,2.36
2018-12-24T21:43:42.303Z,3.11
2018-12-24T21:49:37.291Z,3.91
2018-12-24T21:55:32.297Z,2.93
2018-12-24T22:01:27.293Z,4.1
2018-12-24T22:07:22.283Z,2.7
2018-12-24T22:13:17.304Z,2.58
2018-12-24T22:19:12.352Z,2.52
2018-12-24T22:25:07.345Z,2.57
2018-12-24T22:31:02.318Z,6.83
2018-12-24T22:36:57.314Z,2.43
2018-12-24T22:42:52.328Z,3.05
2018-12-24T22:48:47.317Z,4.28
2018-12-24T22:54:42.336Z,3.08
2018-12-24T23:00:37.326Z,5.51
2018-12-24T23:06:32.315Z,3.19
2018-12-24T23:12:27.368Z,5.09
2018-12-24T23:18:22.349Z,5.21
2018-12-24T23:24:17.407Z,3.21
2018-12-24T23:30:12.402Z,4.7
2018-12-24T23:36:07.344Z,5.59
2018-12-24T23:42:02.355Z,3
2018-12-24T23:47:57.380Z,2.8
2018-12-24T23:53:52.399Z,5.11
2018-12-24T23:59:47.361Z,6.46
